Time;durP1;ratioP1;P1;durP2;ratioP2;P2;SDS_P1;SDS_P2;PMS_P1;PMS_P2;Temp;Humidity;BMP_temperature;BMP_pressure;BME280_temperature;BME280_humidity;BME280_pressure;Samples;Min_cycle;Max_cycle;Signal;HPM_P1;HPM_P2
2023/05/22 00:01:08;;;;;;;6.50;4.70;;;;;;;11.11;59.59;100619.77;131148;1250;107284;-74
2023/05/22 00:04:19;;;;;;;5.60;4.50;;;;;;;11.08;59.46;100617.79;131120;1252;107389;-75
2023/05/22 00:07:26;;;;;;;6.80;4.40;;;;;;;11.04;59.58;100618.55;131074;1253;107481;-74
2023/05/22 00:10:31;;;;;;;6.30;4.20;;;;;;;10.99;59.68;100617.48;130972;1254;105495;-74
2023/05/22 00:13:37;;;;;;;7.70;5.10;;;;;;;10.95;59.96;100613.41;131103;1250;107517;-73
2023/05/22 00:16:42;;;;;;;5.60;4.40;;;;;;;10.93;60.09;100613.31;130868;1258;107507;-74
2023/05/22 00:19:48;;;;;;;7.90;5.90;;;;;;;10.89;59.67;100612.74;131297;1255;107496;-74
2023/05/22 00:22:55;;;;;;;8.00;5.50;;;;;;;10.85;60.02;100611.58;131311;1256;106542;-74
2023/05/22 00:26:01;;;;;;;8.80;5.80;;;;;;;10.82;60.11;100607.79;131303;1258;105853;-75
2023/05/22 00:29:06;;;;;;;7.60;5.70;;;;;;;10.78;60.04;100609.55;131060;1255;107237;-73
2023/05/22 00:32:12;;;;;;;8.40;5.60;;;;;;;10.75;59.95;100613.20;130958;1254;107525;-74
2023/05/22 00:35:17;;;;;;;9.00;6.10;;;;;;;10.70;60.02;100607.61;131080;1249;107326;-74
2023/05/22 00:38:35;;;;;;;8.60;6.20;;;;;;;10.67;60.12;100605.48;131001;1253;107530;-74
2023/05/22 00:41:41;;;;;;;7.30;4.70;;;;;;;10.65;60.16;100606.05;131054;1255;107459;-75
2023/05/22 00:44:47;;;;;;;6.30;4.40;;;;;;;10.58;60.42;100602.70;131174;1263;106523;-73
2023/05/22 00:47:53;;;;;;;5.70;3.90;;;;;;;10.54;60.14;100604.54;131198;1264;107489;-73
2023/05/22 00:50:59;;;;;;;6.50;4.80;;;;;;;10.54;60.08;100603.63;131180;1251;107220;-74
2023/05/22 00:54:05;;;;;;;5.40;4.20;;;;;;;10.56;60.22;100603.46;131014;1250;107236;-74
2023/05/22 00:57:12;;;;;;;6.20;4.70;;;;;;;10.56;60.43;100605.26;131019;1249;107281;-74
2023/05/22 01:00:19;;;;;;;6.00;4.20;;;;;;;10.55;60.39;100605.46;131045;1250;107529;-74
2023/05/22 01:03:27;;;;;;;6.40;4.70;;;;;;;10.53;60.32;100606.92;130955;1255;107500;-74
2023/05/22 01:06:33;;;;;;;5.80;4.50;;;;;;;10.50;60.46;100602.61;131029;1254;107459;-73
2023/05/22 01:09:38;;;;;;;6.30;4.70;;;;;;;10.45;60.24;100604.52;131095;1250;107247;-73
2023/05/22 01:12:53;;;;;;;6.30;4.90;;;;;;;10.40;60.46;100609.73;131127;1254;107456;-74
2023/05/22 01:16:09;;;;;;;7.00;5.50;;;;;;;10.36;60.57;100613.51;131049;1256;107542;-76
2023/05/22 01:19:34;;;;;;;7.30;5.20;;;;;;;10.34;60.66;100604.27;131059;1253;107448;-73
2023/05/22 01:23:03;;;;;;;7.70;5.40;;;;;;;10.29;60.99;100608.63;131009;1253;107511;-75
2023/05/22 01:26:31;;;;;;;7.00;5.60;;;;;;;10.24;60.99;100605.14;131009;1249;107437;-73
2023/05/22 01:30:01;;;;;;;8.30;5.20;;;;;;;10.20;60.87;100601.20;130973;1250;107269;-75
2023/05/22 01:33:11;;;;;;;6.70;4.60;;;;;;;10.16;60.74;100603.21;131025;1255;107464;-74
2023/05/22 01:36:21;;;;;;;6.30;4.60;;;;;;;10.11;60.87;100600.81;131039;1255;107344;-74
2023/05/22 01:39:28;;;;;;;7.10;4.80;;;;;;;10.08;61.38;100596.89;130969;1255;107411;-75
2023/05/22 01:42:34;;;;;;;6.80;5.10;;;;;;;10.05;61.18;100597.81;130960;1256;107553;-75
2023/05/22 01:45:40;;;;;;;8.20;5.10;;;;;;;10.01;61.19;100600.01;131059;1255;107330;-75
2023/05/22 01:48:45;;;;;;;8.70;5.50;;;;;;;9.96;61.16;100603.42;130970;1255;107399;-75
2023/05/22 01:51:58;;;;;;;9.40;6.10;;;;;;;9.93;61.33;100605.02;131044;1256;107368;-76
2023/05/22 01:55:12;;;;;;;11.60;6.90;;;;;;;9.90;61.48;100602.29;130958;1254;107521;-74
2023/05/22 01:58:31;;;;;;;15.10;9.00;;;;;;;9.87;61.26;100604.44;130990;1255;107435;-73
2023/05/22 02:01:39;;;;;;;17.10;10.40;;;;;;;9.84;61.31;100608.45;131039;1258;107888;-75
2023/05/22 02:04:51;;;;;;;19.10;10.50;;;;;;;9.82;61.41;100610.58;130892;1257;107524;-76
2023/05/22 02:08:00;;;;;;;13.80;8.70;;;;;;;9.76;61.42;100610.27;130920;1256;107250;-77
2023/05/22 02:11:07;;;;;;;14.60;7.60;;;;;;;9.72;61.53;100610.30;130873;1251;107513;-78
2023/05/22 02:14:14;;;;;;;9.00;5.80;;;;;;;9.68;61.47;100605.29;130943;1250;107498;-78
2023/05/22 02:17:21;;;;;;;10.70;6.30;;;;;;;9.63;61.52;100607.50;131057;1256;107383;-73
2023/05/22 02:20:27;;;;;;;7.60;5.50;;;;;;;9.60;61.59;100605.64;131079;1255;107556;-74
2023/05/22 02:23:32;;;;;;;9.10;5.60;;;;;;;9.57;61.74;100601.08;131188;1256;106611;-74
2023/05/22 02:26:38;;;;;;;7.90;5.90;;;;;;;9.56;61.77;100602.05;131209;1255;107526;-77
2023/05/22 02:29:44;;;;;;;9.00;5.40;;;;;;;9.53;61.93;100601.70;130999;1250;107241;-74
2023/05/22 02:32:50;;;;;;;7.50;5.50;;;;;;;9.49;61.88;100601.30;130963;1258;107376;-73
2023/05/22 02:35:55;;;;;;;10.10;6.50;;;;;;;9.48;61.68;100601.27;131118;1255;107569;-77
2023/05/22 02:39:03;;;;;;;8.20;6.20;;;;;;;9.41;61.98;100600.02;131044;1253;107463;-74
2023/05/22 02:42:10;;;;;;;6.90;5.90;;;;;;;9.36;61.99;100595.52;131236;1254;107466;-74
2023/05/22 02:45:19;;;;;;;9.30;6.20;;;;;;;9.33;62.07;100594.52;131255;1255;107385;-74
2023/05/22 02:48:24;;;;;;;8.90;6.10;;;;;;;9.34;61.88;100590.19;131287;1255;107563;-75
2023/05/22 02:51:30;;;;;;;7.50;5.90;;;;;;;9.36;62.15;100587.00;131019;1255;107447;-75
2023/05/22 02:54:36;;;;;;;7.60;6.10;;;;;;;9.37;62.04;100584.39;131308;1254;107528;-73
2023/05/22 02:57:41;;;;;;;9.60;6.20;;;;;;;9.38;62.08;100585.22;131322;1262;107488;-71
2023/05/22 03:00:47;;;;;;;7.80;6.10;;;;;;;9.39;62.16;100583.38;131268;1254;107105;-69
2023/05/22 03:03:53;;;;;;;9.40;6.40;;;;;;;9.38;62.36;100576.02;130790;1254;108087;-72
2023/05/22 03:07:00;;;;;;;8.70;6.70;;;;;;;9.41;62.30;100577.32;130883;1256;123623;-71
2023/05/22 03:10:08;;;;;;;9.20;6.60;;;;;;;9.44;62.25;100577.39;131193;1264;107444;-76
2023/05/22 03:13:14;;;;;;;9.80;6.50;;;;;;;9.48;62.35;100577.05;131276;1254;107531;-74
2023/05/22 03:16:20;;;;;;;9.80;6.30;;;;;;;9.52;62.41;100578.52;131278;1255;107521;-76
2023/05/22 03:19:26;;;;;;;7.90;6.20;;;;;;;9.56;62.30;100578.14;131193;1256;107496;-76
2023/05/22 03:22:31;;;;;;;9.10;5.80;;;;;;;9.59;62.53;100574.26;131173;1255;107722;-74
2023/05/22 03:25:37;;;;;;;7.40;5.10;;;;;;;9.67;62.66;100576.99;130973;1264;107508;-75
2023/05/22 03:28:42;;;;;;;8.60;6.20;;;;;;;9.80;62.58;100578.56;131287;1255;107413;-75
2023/05/22 03:31:48;;;;;;;9.80;6.70;;;;;;;9.94;62.68;100576.05;131113;1256;107465;-76
2023/05/22 03:34:54;;;;;;;8.00;6.40;;;;;;;10.15;62.61;100576.08;131057;1255;106694;-76
2023/05/22 03:38:00;;;;;;;9.10;6.30;;;;;;;10.40;62.44;100570.80;131298;1249;107431;-76
2023/05/22 03:41:06;;;;;;;8.70;5.70;;;;;;;10.61;62.39;100575.45;131072;1250;107603;-77
2023/05/22 03:44:12;;;;;;;8.20;6.10;;;;;;;10.82;63.15;100572.39;131335;1255;107523;-78
2023/05/22 03:47:17;;;;;;;11.20;6.00;;;;;;;11.01;62.80;100571.59;130986;1257;107531;-78
2023/05/22 03:50:24;;;;;;;8.20;6.00;;;;;;;11.23;63.28;100568.39;131321;1254;107491;-77
2023/05/22 03:53:30;;;;;;;8.60;6.30;;;;;;;11.52;62.84;100569.64;131136;1253;107494;-78
2023/05/22 03:56:36;;;;;;;7.50;6.40;;;;;;;11.83;62.94;100568.55;130974;1256;107511;-77
2023/05/22 03:59:41;;;;;;;7.20;6.00;;;;;;;12.14;62.79;100567.83;130912;1258;106658;-77
2023/05/22 04:02:49;;;;;;;9.00;6.20;;;;;;;12.39;62.60;100567.68;131020;1254;107415;-77
2023/05/22 04:05:57;;;;;;;9.40;5.90;;;;;;;12.63;62.73;100571.68;131349;1263;107652;-77
2023/05/22 04:09:03;;;;;;;11.30;6.90;;;;;;;12.92;62.74;100576.36;131167;1249;107376;-74
2023/05/22 04:12:10;;;;;;;7.20;5.50;;;;;;;13.21;62.74;100575.66;131035;1254;107548;-74
2023/05/22 04:15:16;;;;;;;6.90;5.60;;;;;;;13.45;62.61;100569.90;131022;1254;106683;-77
2023/05/22 04:18:21;;;;;;;7.40;5.80;;;;;;;13.66;62.60;100564.09;131017;1255;107510;-77
2023/05/22 04:21:27;;;;;;;6.40;5.60;;;;;;;13.89;62.65;100567.50;130934;1250;107247;-77
2023/05/22 04:24:32;;;;;;;10.10;5.70;;;;;;;14.17;62.67;100562.70;131172;1263;107611;-77
2023/05/22 04:27:38;;;;;;;6.70;5.50;;;;;;;14.40;62.66;100562.27;131385;1256;107453;-76
2023/05/22 04:30:45;;;;;;;7.20;6.10;;;;;;;14.60;62.53;100558.13;131023;1255;107559;-76
2023/05/22 04:33:50;;;;;;;7.80;6.10;;;;;;;14.81;62.74;100559.51;130948;1255;107525;-77
2023/05/22 04:36:58;;;;;;;6.80;5.70;;;;;;;15.01;62.68;100559.10;131075;1254;107552;-76
2023/05/22 04:40:06;;;;;;;10.30;6.80;;;;;;;15.23;62.93;100558.02;131274;1254;107325;-78
2023/05/22 04:43:12;;;;;;;7.50;5.70;;;;;;;15.45;62.82;100550.97;131263;1255;107343;-78
2023/05/22 04:46:19;;;;;;;8.20;6.00;;;;;;;15.65;63.01;100549.33;131365;1255;107467;-77
2023/05/22 04:49:25;;;;;;;9.00;5.20;;;;;;;15.88;62.96;100551.27;131137;1255;105938;-77
2023/05/22 04:52:31;;;;;;;7.50;5.70;;;;;;;16.09;62.72;100546.25;131106;1256;107361;-77
2023/05/22 04:55:36;;;;;;;5.60;4.50;;;;;;;16.27;62.69;100544.05;131555;1255;107908;-77
2023/05/22 04:58:42;;;;;;;6.90;5.10;;;;;;;16.35;62.51;100545.80;131366;1249;107504;-77
2023/05/22 05:01:49;;;;;;;7.20;4.70;;;;;;;16.44;62.58;100546.30;131265;1253;107464;-77
2023/05/22 05:04:54;;;;;;;6.00;4.60;;;;;;;16.57;62.41;100546.11;131075;1253;107439;-77
2023/05/22 05:08:01;;;;;;;6.70;4.00;;;;;;;16.77;62.07;100549.63;130930;1257;107250;-79
2023/05/22 05:11:07;;;;;;;5.90;4.10;;;;;;;16.98;62.06;100550.70;130966;1258;107373;-77
2023/05/22 05:14:12;;;;;;;4.80;3.80;;;;;;;17.16;61.94;100550.44;130950;1255;107422;-76
2023/05/22 05:17:18;;;;;;;5.50;3.60;;;;;;;17.36;61.69;100555.20;131264;1254;107534;-77
2023/05/22 05:20:26;;;;;;;5.70;3.80;;;;;;;17.54;61.35;100552.41;131136;1250;107648;-77
2023/05/22 05:23:31;;;;;;;4.00;3.40;;;;;;;17.70;60.95;100551.83;130948;1263;108481;-79
2023/05/22 05:26:37;;;;;;;5.70;3.20;;;;;;;17.85;60.99;100550.73;130891;1256;107540;-77
2023/05/22 05:29:43;;;;;;;6.50;3.80;;;;;;;18.01;60.56;100555.25;131024;1256;107429;-76
2023/05/22 05:32:57;;;;;;;5.10;3.60;;;;;;;18.17;60.40;100547.86;131064;1250;107612;-77
2023/05/22 05:36:10;;;;;;;5.00;3.60;;;;;;;18.30;60.18;100547.50;131075;1255;107581;-77
2023/05/22 05:39:16;;;;;;;4.90;3.40;;;;;;;18.40;59.88;100548.57;131059;1256;107212;-77
2023/05/22 05:42:22;;;;;;;5.50;3.30;;;;;;;18.51;59.77;100554.21;131248;1256;107538;-78
2023/05/22 05:45:28;;;;;;;5.10;3.60;;;;;;;18.60;59.46;100553.57;131250;1255;107415;-76
2023/05/22 05:48:35;;;;;;;5.30;3.20;;;;;;;18.66;59.24;100549.99;131016;1255;107411;-77
2023/05/22 05:51:40;;;;;;;3.60;3.00;;;;;;;18.71;59.05;100551.84;130915;1256;108250;-78
2023/05/22 05:54:47;;;;;;;3.20;2.80;;;;;;;18.72;58.50;100557.42;131192;1256;106407;-77
2023/05/22 05:57:55;;;;;;;4.30;3.30;;;;;;;18.73;58.65;100548.08;131038;1263;107426;-76
2023/05/22 06:01:10;;;;;;;4.00;3.00;;;;;;;18.79;58.68;100548.41;131228;1263;107366;-78
2023/05/22 06:04:16;;;;;;;4.00;2.80;;;;;;;18.87;58.24;100551.77;131306;1263;107551;-77
2023/05/22 06:07:24;;;;;;;3.20;2.80;;;;;;;18.92;57.98;100549.50;131255;1263;107421;-78
2023/05/22 06:10:31;;;;;;;3.90;2.90;;;;;;;18.94;57.91;100551.17;131038;1256;107343;-76
2023/05/22 06:13:48;;;;;;;4.60;3.00;;;;;;;18.99;57.58;100545.69;131121;1255;107455;-76
2023/05/22 06:16:54;;;;;;;3.60;2.80;;;;;;;19.03;57.30;100545.47;130944;1256;107519;-76
2023/05/22 06:20:00;;;;;;;3.60;2.80;;;;;;;19.07;57.03;100539.91;131046;1255;107412;-78
2023/05/22 06:23:06;;;;;;;6.30;2.80;;;;;;;19.11;57.44;100537.98;130971;1258;107531;-78
2023/05/22 06:26:12;;;;;;;4.70;2.90;;;;;;;19.15;57.17;100537.80;131086;1258;108127;-77
2023/05/22 06:29:18;;;;;;;4.50;2.90;;;;;;;19.19;56.35;100535.33;131009;1255;107517;-76
2023/05/22 06:32:24;;;;;;;4.30;3.00;;;;;;;19.21;56.04;100535.54;130953;1258;108455;-76
2023/05/22 06:35:31;;;;;;;4.30;2.90;;;;;;;19.29;55.94;100531.16;131033;1255;107414;-77
2023/05/22 06:38:38;;;;;;;3.70;2.50;;;;;;;19.35;55.59;100531.19;131082;1263;107378;-76
2023/05/22 06:41:44;;;;;;;4.30;2.60;;;;;;;19.41;55.48;100527.89;131054;1266;108573;-78
2023/05/22 06:44:51;;;;;;;4.70;2.90;;;;;;;19.48;55.45;100526.80;131001;1264;107468;-77
2023/05/22 06:47:56;;;;;;;2.90;2.60;;;;;;;19.55;55.46;100522.81;131135;1256;106641;-77
2023/05/22 06:51:04;;;;;;;16.90;13.40;;;;;;;19.61;55.28;100524.66;130994;1255;107437;-77
2023/05/22 06:54:11;;;;;;;12.90;7.10;;;;;;;19.66;54.26;100523.70;131096;1257;107462;-77
2023/05/22 06:57:16;;;;;;;7.70;5.20;;;;;;;19.69;53.99;100522.41;131022;1251;107465;-76
2023/05/22 07:00:22;;;;;;;4.90;3.00;;;;;;;19.72;54.30;100521.56;131121;1250;107538;-76
2023/05/22 07:03:41;;;;;;;10.30;9.40;;;;;;;19.80;54.02;100515.42;131079;1263;107416;-77
2023/05/22 07:07:06;;;;;;;7.60;6.90;;;;;;;19.86;53.43;100518.21;130990;1256;107228;-77
2023/05/22 07:10:12;;;;;;;5.20;3.50;;;;;;;19.92;53.10;100522.09;130920;1255;107447;-76
2023/05/22 07:13:18;;;;;;;3.80;3.20;;;;;;;20.00;52.89;100516.92;130968;1255;107475;-77
2023/05/22 07:16:25;;;;;;;42.30;26.10;;;;;;;20.07;52.39;100516.16;130859;1255;107466;-77
2023/05/22 07:19:31;;;;;;;9.90;5.70;;;;;;;20.12;52.22;100517.50;131028;1256;107361;-77
2023/05/22 07:22:39;;;;;;;6.30;3.70;;;;;;;20.17;51.49;100517.62;130918;1263;107524;-77
2023/05/22 07:25:44;;;;;;;7.40;3.40;;;;;;;20.19;51.08;100515.70;130959;1257;107547;-76
2023/05/22 07:28:51;;;;;;;5.30;3.60;;;;;;;20.25;51.06;100515.14;130928;1256;107719;-76
2023/05/22 07:31:57;;;;;;;9.40;7.20;;;;;;;20.33;50.90;100517.80;131039;1263;106240;-78
2023/05/22 07:35:04;;;;;;;4.10;2.80;;;;;;;20.41;50.62;100517.05;130972;1257;107467;-76
2023/05/22 07:38:10;;;;;;;25.90;13.60;;;;;;;20.48;50.53;100517.54;130963;1253;108002;-77
2023/05/22 07:41:17;;;;;;;17.40;12.30;;;;;;;20.52;50.23;100511.94;130954;1263;106469;-76
2023/05/22 07:44:23;;;;;;;11.00;8.90;;;;;;;20.62;50.60;100511.77;131138;1250;107480;-76
2023/05/22 07:47:29;;;;;;;7.40;6.60;;;;;;;20.71;50.33;100508.33;130975;1254;107416;-76
2023/05/22 07:50:35;;;;;;;20.60;18.40;;;;;;;20.79;50.01;100512.55;130903;1251;107430;-76
2023/05/22 07:53:42;;;;;;;4.50;3.40;;;;;;;20.85;48.58;100513.90;131041;1263;107430;-77
2023/05/22 07:56:48;;;;;;;4.70;2.70;;;;;;;20.93;48.53;100516.05;130883;1267;108310;-76
2023/05/22 07:59:55;;;;;;;4.20;2.70;;;;;;;20.99;47.83;100514.88;131085;1263;107529;-77
2023/05/22 08:03:00;;;;;;;3.60;1.90;;;;;;;21.03;48.04;100517.00;131070;1259;108199;-76
2023/05/22 08:06:06;;;;;;;2.10;1.80;;;;;;;21.09;47.01;100516.14;131208;1258;106266;-76
2023/05/22 08:09:12;;;;;;;3.20;2.10;;;;;;;21.16;46.92;100513.05;131287;1263;107339;-76
2023/05/22 08:12:17;;;;;;;4.60;2.00;;;;;;;21.23;46.62;100512.64;131363;1255;107629;-76
2023/05/22 08:15:23;;;;;;;2.40;1.90;;;;;;;21.26;45.82;100512.45;131258;1252;107519;-77
2023/05/22 08:18:28;;;;;;;3.20;1.80;;;;;;;21.30;45.54;100508.56;131199;1263;107494;-76
2023/05/22 08:21:34;;;;;;;3.80;1.90;;;;;;;21.33;45.96;100507.58;131252;1262;107560;-77
2023/05/22 08:24:40;;;;;;;2.90;1.90;;;;;;;21.39;45.48;100502.11;131178;1256;107359;-77
2023/05/22 08:27:45;;;;;;;3.00;2.00;;;;;;;21.48;45.47;100503.64;131039;1255;107601;-77
2023/05/22 08:30:53;;;;;;;3.10;1.70;;;;;;;21.54;44.51;100500.63;131233;1262;108540;-76
2023/05/22 08:34:01;;;;;;;4.00;2.10;;;;;;;21.60;45.14;100502.02;131017;1265;107584;-77
2023/05/22 08:37:08;;;;;;;3.20;1.80;;;;;;;21.64;44.96;100501.17;131034;1254;107506;-76
2023/05/22 08:40:14;;;;;;;2.40;1.60;;;;;;;21.70;45.12;100499.05;130941;1251;107276;-76
2023/05/22 08:43:21;;;;;;;2.20;1.70;;;;;;;21.80;44.21;100503.45;131007;1260;107385;-76
2023/05/22 08:46:29;;;;;;;5.00;2.10;;;;;;;21.85;43.75;100504.86;131290;1264;107360;-76
2023/05/22 08:49:35;;;;;;;2.10;1.70;;;;;;;21.87;43.77;100499.75;131228;1254;106569;-77
2023/05/22 08:52:47;;;;;;;2.30;2.00;;;;;;;21.95;44.23;100497.10;131049;1263;107446;-77
2023/05/22 08:55:55;;;;;;;3.10;1.80;;;;;;;22.15;43.29;100498.17;131150;1254;107533;-76
2023/05/22 08:59:02;;;;;;;2.30;2.00;;;;;;;22.30;43.28;100489.30;131357;1255;107341;-78
2023/05/22 09:02:08;;;;;;;3.70;2.00;;;;;;;22.46;43.12;100492.83;131330;1251;107529;-77
2023/05/22 09:05:15;;;;;;;2.80;2.30;;;;;;;22.59;42.38;100498.98;131195;1251;107673;-76
2023/05/22 09:08:21;;;;;;;3.70;2.00;;;;;;;22.69;42.14;100494.61;131237;1254;108648;-78
2023/05/22 09:11:27;;;;;;;2.00;1.80;;;;;;;22.76;42.13;100491.90;131005;1263;107549;-76
2023/05/22 09:14:40;;;;;;;2.70;2.10;;;;;;;22.82;42.05;100488.45;130978;1255;106553;-77
2023/05/22 09:17:47;;;;;;;4.40;2.00;;;;;;;22.88;41.56;100484.55;131194;1254;106428;-78
2023/05/22 09:20:52;;;;;;;2.60;2.20;;;;;;;22.92;41.67;100481.11;131332;1263;107343;-78
2023/05/22 09:24:01;;;;;;;2.20;1.90;;;;;;;22.98;41.49;100476.81;131049;1265;107525;-78
2023/05/22 09:27:08;;;;;;;2.90;1.90;;;;;;;23.05;41.02;100472.78;131157;1253;107464;-77
2023/05/22 09:30:17;;;;;;;4.50;2.20;;;;;;;23.14;40.19;100472.55;131272;1250;107374;-77
2023/05/22 09:33:24;;;;;;;2.00;1.70;;;;;;;23.23;40.35;100474.90;131185;1254;105682;-76
2023/05/22 09:36:33;;;;;;;3.40;1.90;;;;;;;23.25;40.23;100473.60;131136;1251;108106;-77
2023/05/22 09:39:43;;;;;;;2.60;1.70;;;;;;;23.30;39.81;100471.66;131108;1255;107505;-76
2023/05/22 09:42:48;;;;;;;2.40;1.90;;;;;;;23.35;40.36;100475.10;131058;1254;107397;-77
2023/05/22 09:46:00;;;;;;;3.60;1.80;;;;;;;23.48;39.59;100471.77;130982;1254;106515;-77
2023/05/22 09:49:06;;;;;;;2.30;1.80;;;;;;;23.62;39.19;100467.10;131000;1253;106015;-78
2023/05/22 09:52:12;;;;;;;4.50;1.90;;;;;;;23.73;39.54;100469.98;131035;1251;107260;-77
2023/05/22 09:55:20;;;;;;;2.70;1.90;;;;;;;23.62;38.90;100467.02;131045;1253;107303;-76
2023/05/22 09:58:30;;;;;;;3.40;2.10;;;;;;;23.53;39.38;100459.13;131148;1251;109487;-77
2023/05/22 10:01:38;;;;;;;3.10;1.70;;;;;;;23.68;39.36;100462.06;131052;1254;107382;-76
2023/05/22 10:04:48;;;;;;;2.60;2.10;;;;;;;23.79;39.19;100459.25;131068;1253;107446;-76
2023/05/22 10:07:57;;;;;;;3.20;2.00;;;;;;;23.88;38.76;100461.11;131182;1253;107361;-76
2023/05/22 10:11:05;;;;;;;1.90;1.80;;;;;;;23.71;38.62;100468.63;131096;1250;106447;-77
2023/05/22 10:14:11;;;;;;;2.30;2.00;;;;;;;23.52;39.20;100459.25;131015;1253;105711;-77
2023/05/22 10:17:17;;;;;;;3.50;2.30;;;;;;;23.42;39.10;100455.98;131068;1253;106584;-76
2023/05/22 10:20:25;;;;;;;2.40;2.00;;;;;;;23.44;39.11;100454.48;131144;1254;107553;-77
2023/05/22 10:23:31;;;;;;;2.30;1.90;;;;;;;23.46;38.54;100453.73;131123;1254;107383;-77
2023/05/22 10:26:37;;;;;;;2.70;2.10;;;;;;;23.47;38.87;100449.73;131188;1252;107370;-76
2023/05/22 10:29:49;;;;;;;4.80;2.00;;;;;;;23.43;38.63;100443.68;131200;1263;107459;-79
2023/05/22 10:33:03;;;;;;;3.80;2.10;;;;;;;23.32;38.09;100447.70;131049;1251;107508;-77
2023/05/22 10:36:11;;;;;;;6.60;2.00;;;;;;;23.23;38.25;100441.59;131004;1253;107282;-76
2023/05/22 10:39:34;;;;;;;2.10;1.70;;;;;;;23.25;38.28;100438.30;131209;1255;106549;-77
2023/05/22 10:42:40;;;;;;;2.80;2.10;;;;;;;23.27;38.01;100434.46;131273;1253;106483;-76
2023/05/22 10:45:48;;;;;;;2.60;2.00;;;;;;;23.28;38.36;100436.22;131255;1253;105634;-76
2023/05/22 10:48:57;;;;;;;2.30;2.10;;;;;;;23.33;38.61;100428.46;131226;1255;107499;-76
2023/05/22 10:52:04;;;;;;;2.80;2.20;;;;;;;23.46;38.60;100424.79;131231;1254;107439;-77
2023/05/22 10:55:10;;;;;;;3.20;2.20;;;;;;;23.56;38.42;100425.55;131105;1256;107235;-77
2023/05/22 10:58:17;;;;;;;4.20;2.30;;;;;;;23.60;37.87;100425.69;131069;1263;107970;-76
2023/05/22 11:01:25;;;;;;;2.70;2.20;;;;;;;23.56;37.41;100426.46;131060;1251;107278;-77
2023/05/22 11:04:34;;;;;;;4.00;2.40;;;;;;;23.50;37.62;100424.89;131175;1263;107589;-77
2023/05/22 11:07:41;;;;;;;3.30;2.50;;;;;;;23.43;37.47;100425.25;131025;1251;106548;-78
2023/05/22 11:10:58;;;;;;;4.20;2.10;;;;;;;23.37;37.37;100422.38;131054;1249;107466;-77
2023/05/22 11:14:04;;;;;;;3.80;2.30;;;;;;;23.29;37.73;100417.56;130975;1257;107500;-77
2023/05/22 11:17:13;;;;;;;2.40;2.20;;;;;;;23.28;37.65;100412.75;131039;1254;107612;-77
2023/05/22 11:20:23;;;;;;;3.60;2.80;;;;;;;23.37;37.48;100401.37;131071;1251;107554;-77
2023/05/22 11:23:33;;;;;;;2.80;2.10;;;;;;;23.54;37.42;100397.55;131066;1253;108299;-77
2023/05/22 11:26:41;;;;;;;2.80;2.40;;;;;;;23.65;37.16;100395.02;131042;1254;107024;-77
2023/05/22 11:29:47;;;;;;;3.50;2.40;;;;;;;23.70;37.43;100393.95;131104;1251;107169;-77
2023/05/22 11:32:53;;;;;;;3.20;2.50;;;;;;;23.67;37.13;100398.74;131110;1251;107324;-76
2023/05/22 11:36:00;;;;;;;3.10;2.30;;;;;;;23.58;37.14;100403.14;131286;1254;107485;-77
2023/05/22 11:39:06;;;;;;;3.90;2.70;;;;;;;23.62;37.73;100397.73;131220;1254;107355;-76
2023/05/22 11:42:12;;;;;;;2.80;2.50;;;;;;;23.73;37.34;100392.70;131210;1254;107536;-76
2023/05/22 11:45:17;;;;;;;2.80;2.20;;;;;;;23.80;37.15;100395.02;131119;1254;107520;-76
2023/05/22 11:48:25;;;;;;;5.40;2.30;;;;;;;23.86;36.76;100391.39;131206;1251;109274;-76
2023/05/22 11:51:30;;;;;;;3.20;2.10;;;;;;;23.83;36.77;100388.23;131322;1254;107351;-76
2023/05/22 11:54:36;;;;;;;3.50;2.10;;;;;;;23.92;36.11;100386.58;131221;1254;107414;-77
2023/05/22 11:57:42;;;;;;;2.70;2.20;;;;;;;24.03;36.54;100382.02;131004;1251;107459;-77
2023/05/22 12:00:47;;;;;;;3.70;2.30;;;;;;;24.18;36.42;100377.91;131085;1251;107247;-76
2023/05/22 12:03:53;;;;;;;3.10;2.10;;;;;;;24.27;36.31;100370.70;131124;1254;107503;-78
2023/05/22 12:06:59;;;;;;;2.30;1.90;;;;;;;24.30;35.79;100368.96;131117;1254;107382;-76
2023/05/22 12:10:07;;;;;;;2.40;1.90;;;;;;;24.24;35.96;100371.14;131281;1253;107653;-76
2023/05/22 12:13:12;;;;;;;4.00;1.90;;;;;;;24.11;35.17;100368.73;131180;1249;107418;-77
2023/05/22 12:16:21;;;;;;;3.40;2.00;;;;;;;24.00;35.23;100368.33;131191;1254;107494;-76
2023/05/22 12:19:28;;;;;;;2.40;1.90;;;;;;;23.88;35.27;100368.23;131000;1253;107266;-76
2023/05/22 12:22:40;;;;;;;2.20;1.90;;;;;;;23.90;35.48;100361.57;131069;1254;106642;-75
2023/05/22 12:25:46;;;;;;;3.80;2.00;;;;;;;24.01;35.36;100357.34;131048;1254;107475;-76
2023/05/22 12:28:55;;;;;;;2.30;2.10;;;;;;;24.12;35.60;100349.94;131157;1264;107538;-76
2023/05/22 12:32:04;;;;;;;2.40;2.00;;;;;;;24.18;35.09;100350.73;131101;1251;108115;-77
2023/05/22 12:35:16;;;;;;;2.40;2.20;;;;;;;24.24;35.26;100345.49;131183;1254;107541;-76
2023/05/22 12:38:24;;;;;;;2.60;2.10;;;;;;;24.26;35.27;100348.27;131155;1254;107499;-76
2023/05/22 12:41:29;;;;;;;3.60;1.90;;;;;;;24.16;34.58;100349.31;130965;1251;107447;-76
2023/05/22 12:44:35;;;;;;;2.60;2.10;;;;;;;23.92;34.80;100347.10;130941;1254;107510;-76
2023/05/22 12:47:40;;;;;;;3.60;2.20;;;;;;;23.80;35.09;100345.56;131078;1255;107503;-78
2023/05/22 12:50:46;;;;;;;3.90;2.10;;;;;;;23.73;35.14;100339.08;131221;1254;107563;-76
2023/05/22 12:53:52;;;;;;;2.30;2.10;;;;;;;23.71;34.79;100341.05;131214;1251;107332;-77
2023/05/22 12:56:57;;;;;;;4.20;2.10;;;;;;;23.75;34.85;100336.66;131070;1254;105984;-77
2023/05/22 13:00:04;;;;;;;3.50;2.10;;;;;;;23.80;34.64;100327.41;130985;1265;107487;-76
2023/05/22 13:03:10;;;;;;;3.30;1.90;;;;;;;23.87;34.99;100331.43;130943;1254;107199;-76
2023/05/22 13:06:16;;;;;;;6.80;2.40;;;;;;;23.81;34.84;100334.88;130976;1250;107231;-77
2023/05/22 13:09:22;;;;;;;2.30;1.90;;;;;;;23.70;34.50;100336.58;130972;1254;107525;-76
2023/05/22 13:12:29;;;;;;;3.30;2.10;;;;;;;23.71;34.79;100331.86;131013;1254;107500;-76
2023/05/22 13:15:35;;;;;;;3.00;2.10;;;;;;;23.83;34.65;100330.08;130974;1254;107362;-78
2023/05/22 13:18:40;;;;;;;2.40;2.20;;;;;;;23.92;34.60;100324.11;130975;1251;107476;-77
2023/05/22 13:21:46;;;;;;;3.40;2.00;;;;;;;24.01;34.36;100323.15;130983;1253;106413;-76
2023/05/22 13:24:52;;;;;;;2.40;2.00;;;;;;;24.13;34.59;100318.55;131153;1254;106786;-77
2023/05/22 13:27:58;;;;;;;2.90;2.30;;;;;;;24.27;34.69;100318.85;131285;1253;107227;-77
2023/05/22 13:31:04;;;;;;;2.30;2.00;;;;;;;24.35;33.91;100323.36;131235;1254;107581;-77
2023/05/22 13:34:09;;;;;;;3.20;2.10;;;;;;;24.35;34.22;100319.59;131029;1253;107592;-77
2023/05/22 13:37:15;;;;;;;3.10;2.10;;;;;;;24.42;34.12;100314.23;131228;1254;107530;-77
2023/05/22 13:40:21;;;;;;;2.70;2.00;;;;;;;24.44;33.75;100313.02;131006;1251;107606;-78
2023/05/22 13:43:26;;;;;;;4.10;1.90;;;;;;;24.38;33.84;100311.95;130992;1254;107580;-78
2023/05/22 13:46:32;;;;;;;2.10;1.80;;;;;;;24.32;33.73;100309.81;130936;1253;107497;-76
2023/05/22 13:49:37;;;;;;;4.50;2.20;;;;;;;24.30;33.72;100307.60;130923;1251;107533;-78
2023/05/22 13:52:43;;;;;;;3.20;2.10;;;;;;;24.28;33.67;100299.40;131033;1251;107587;-77
2023/05/22 13:55:48;;;;;;;4.50;2.40;;;;;;;24.23;33.56;100298.20;131011;1255;107504;-77
2023/05/22 13:58:54;;;;;;;3.10;1.80;;;;;;;24.15;33.63;100295.42;131049;1253;107632;-77
2023/05/22 14:01:59;;;;;;;4.30;1.90;;;;;;;24.12;33.38;100295.09;131180;1254;107541;-79
2023/05/22 14:05:05;;;;;;;3.50;1.90;;;;;;;24.10;33.85;100292.05;131180;1254;107437;-76
2023/05/22 14:08:11;;;;;;;4.00;2.00;;;;;;;24.13;33.64;100285.67;131012;1253;107623;-77
2023/05/22 14:11:16;;;;;;;2.70;1.80;;;;;;;24.12;33.50;100284.93;131081;1254;107473;-77